createdAt,value
2018-08-20T00:00:58.765Z,56.81
2018-08-20T00:01:58.974Z,55.34
2018-08-20T00:02:58.583Z,54.96
2018-08-20T00:03:58.479Z,54.19
2018-08-20T00:04:58.390Z,53.52
2018-08-20T00:05:58.297Z,54.19
2018-08-20T00:06:58.194Z,53.52
2018-08-20T00:07:58.105Z,53.42
2018-08-20T00:08:58.001Z,54.86
2018-08-20T00:09:57.909Z,52.84
2018-08-20T00:10:57.806Z,51.79
2018-08-20T00:11:57.721Z,51.11
2018-08-20T00:12:57.616Z,50.99
2018-08-20T00:13:57.520Z,49.84
2018-08-20T00:14:57.431Z,48.97
2018-08-20T00:15:57.329Z,48.97
2018-08-20T00:16:57.236Z,49.84
2018-08-20T00:17:57.133Z,50.42
2018-08-20T00:18:57.043Z,48.79
2018-08-20T00:19:56.952Z,47.92
2018-08-20T00:20:56.848Z,48.97
2018-08-20T00:21:56.758Z,45.71
2018-08-20T00:22:56.654Z,46.00
2018-08-20T00:23:56.564Z,44.46
2018-08-20T00:24:56.473Z,44.75
2018-08-20T00:25:56.369Z,45.81
2018-08-20T00:26:56.278Z,46.26
2018-08-20T00:27:56.176Z,44.56
2018-08-20T00:28:56.084Z,43.29
2018-08-20T00:29:55.984Z,42.71
2018-08-20T00:30:55.889Z,45.78
2018-08-20T00:31:56.052Z,46.36
2018-08-20T00:32:55.696Z,46.36
2018-08-20T00:33:55.605Z,45.88
2018-08-20T00:34:55.501Z,47.99
2018-08-20T00:35:55.412Z,48.66
2018-08-20T00:36:55.309Z,48.85
2018-08-20T00:37:55.217Z,49.72
2018-08-20T00:38:55.128Z,48.38
2018-08-20T00:39:55.026Z,47.71
2018-08-20T00:40:54.931Z,48.18
2018-08-20T00:41:55.128Z,48.47
2018-08-20T00:42:54.738Z,44.54
2018-08-20T00:43:54.646Z,44.34
2018-08-20T00:44:54.547Z,45.78
2018-08-20T00:45:54.453Z,48.76
2018-08-20T00:46:54.353Z,42.90
2018-08-20T00:47:54.259Z,44.24
2018-08-20T00:48:54.155Z,47.41
2018-08-20T00:49:54.066Z,47.80
2018-08-20T00:50:53.963Z,47.41
2018-08-20T00:51:53.871Z,48.54
2018-08-20T00:52:53.780Z,47.68
2018-08-20T00:53:53.677Z,44.06
2018-08-20T00:54:53.586Z,46.55
2018-08-20T00:55:53.482Z,45.37
2018-08-20T00:56:53.392Z,47.89
2018-08-20T00:57:53.289Z,49.33
2018-08-20T00:58:53.198Z,49.62
2018-08-20T00:59:53.108Z,49.15
2018-08-20T01:00:53.004Z,51.16
2018-08-20T01:01:52.912Z,52.79
2018-08-20T01:02:52.809Z,53.66
2018-08-20T01:03:52.719Z,55.47
2018-08-20T01:04:52.618Z,54.35
2018-08-20T01:05:52.525Z,53.49
2018-08-20T01:06:52.422Z,52.81
2018-08-20T01:07:52.332Z,53.11
2018-08-20T01:08:52.240Z,56.66
2018-08-20T01:09:52.135Z,58.87
2018-08-20T01:10:52.046Z,59.83
2018-08-20T01:11:51.949Z,61.17
2018-08-20T01:12:51.851Z,61.65
2018-08-20T01:13:51.747Z,63.76
2018-08-20T01:14:51.657Z,64.15
2018-08-20T01:15:51.567Z,64.56
2018-08-20T01:16:51.462Z,65.23
2018-08-20T01:17:51.372Z,64.76
2018-08-20T01:18:51.270Z,66.20
2018-08-20T01:19:51.178Z,65.72
2018-08-20T01:20:51.075Z,66.39
2018-08-20T01:21:50.984Z,66.77
2018-08-20T01:22:50.880Z,66.87
2018-08-20T01:23:50.792Z,66.58
2018-08-20T01:24:50.688Z,67.07
2018-08-20T01:25:50.596Z,67.35
2018-08-20T01:26:50.754Z,66.87
2018-08-20T01:27:50.413Z,67.25
2018-08-20T01:28:50.310Z,67.16
2018-08-20T01:29:50.208Z,67.16
2018-08-20T01:30:50.118Z,67.83
2018-08-20T01:31:50.015Z,68.02
2018-08-20T01:32:49.923Z,68.02
2018-08-20T01:33:49.832Z,68.12
2018-08-20T01:34:49.729Z,67.83
2018-08-20T01:35:49.639Z,68.02
2018-08-20T01:36:49.784Z,67.83
2018-08-20T01:37:49.443Z,68.02
2018-08-20T01:38:49.341Z,67.54
2018-08-20T01:39:49.250Z,67.16
2018-08-20T01:40:49.159Z,67.35
2018-08-20T01:41:49.058Z,67.74
2018-08-20T01:42:48.965Z,67.54
2018-08-20T01:43:48.864Z,67.45
2018-08-20T01:44:48.769Z,67.35
2018-08-20T01:45:48.667Z,67.07
2018-08-20T01:46:48.876Z,67.64
2018-08-20T01:47:48.485Z,67.54
2018-08-20T01:48:48.381Z,67.54
2018-08-20T01:49:48.292Z,67.25
2018-08-20T01:50:48.188Z,67.25
2018-08-20T01:51:48.099Z,67.61
2018-08-20T01:52:47.993Z,65.88
2018-08-20T01:53:47.915Z,65.78
2018-08-20T01:54:47.813Z,66.74
2018-08-20T01:55:47.709Z,65.20
2018-08-20T01:56:47.869Z,65.69
2018-08-20T01:57:47.514Z,65.20
2018-08-20T01:58:47.423Z,65.01
2018-08-20T01:59:47.320Z,64.72
2018-08-20T02:00:47.230Z,64.53
2018-08-20T02:01:47.139Z,64.34
2018-08-20T02:02:47.035Z,64.37
2018-08-20T02:03:46.945Z,64.63
2018-08-20T02:04:46.842Z,65.59
2018-08-20T02:05:46.753Z,64.72
2018-08-20T02:06:46.648Z,64.92
2018-08-20T02:07:46.557Z,64.92
2018-08-20T02:08:46.454Z,65.01
2018-08-20T02:09:46.363Z,65.88
2018-08-20T02:10:46.271Z,65.59
2018-08-20T02:11:46.168Z,64.63
2018-08-20T02:12:46.077Z,64.63
2018-08-20T02:13:45.974Z,64.72
2018-08-20T02:14:45.884Z,64.63
2018-08-20T02:15:45.809Z,64.43
2018-08-20T02:16:45.990Z,64.92
2018-08-20T02:17:45.599Z,64.82
2018-08-20T02:18:45.496Z,65.20
2018-08-20T02:19:45.404Z,65.88
2018-08-20T02:20:45.300Z,64.72
2018-08-20T02:21:45.211Z,64.56
2018-08-20T02:22:45.107Z,64.34
2018-08-20T02:23:45.016Z,65.49
2018-08-20T02:24:44.925Z,65.49
2018-08-20T02:25:44.822Z,65.40
2018-08-20T02:26:44.980Z,64.34
2018-08-20T02:27:44.627Z,64.63
2018-08-20T02:28:44.537Z,65.20
2018-08-20T02:29:44.436Z,65.11
2018-08-20T02:30:44.343Z,64.53
2018-08-20T02:31:44.252Z,62.81
2018-08-20T02:32:44.148Z,64.34
2018-08-20T02:33:44.057Z,62.52
2018-08-20T02:34:43.954Z,61.75
2018-08-20T02:35:43.864Z,62.13
2018-08-20T02:36:44.062Z,62.32
2018-08-20T02:37:43.669Z,61.46
2018-08-20T02:38:43.568Z,62.23
2018-08-20T02:39:43.477Z,61.84
2018-08-20T02:40:43.386Z,63.38
2018-08-20T02:41:43.297Z,62.13
2018-08-20T02:42:43.191Z,61.94
2018-08-20T02:43:43.088Z,61.17
2018-08-20T02:44:42.998Z,61.17
2018-08-20T02:45:42.896Z,61.46
2018-08-20T02:46:43.053Z,61.46
2018-08-20T02:47:42.712Z,60.69
2018-08-20T02:48:42.609Z,60.88
2018-08-20T02:49:42.518Z,61.08
2018-08-20T02:50:42.415Z,60.60
2018-08-20T02:51:42.323Z,60.98
2018-08-20T02:52:42.219Z,60.98
2018-08-20T02:53:42.131Z,60.78
2018-08-20T02:54:42.038Z,60.40
2018-08-20T02:55:41.937Z,61.52
2018-08-20T02:56:42.144Z,61.14
2018-08-20T02:57:41.741Z,58.94
2018-08-20T02:58:41.651Z,57.68
2018-08-20T02:59:41.547Z,57.01
2018-08-20T03:00:41.457Z,57.40
2018-08-20T03:01:41.354Z,57.21
2018-08-20T03:02:41.262Z,55.96
2018-08-20T03:03:41.190Z,57.01
2018-08-20T03:04:41.069Z,57.30
2018-08-20T03:05:40.977Z,56.53
2018-08-20T03:06:40.878Z,55.86
2018-08-20T03:07:40.784Z,55.19
2018-08-20T03:08:40.682Z,54.80
2018-08-20T03:09:40.590Z,54.88
2018-08-20T03:10:40.486Z,53.24
2018-08-20T03:11:40.398Z,51.32
2018-08-20T03:12:40.304Z,49.69
2018-08-20T03:13:40.200Z,50.27
2018-08-20T03:14:40.112Z,46.24
2018-08-20T03:15:40.006Z,46.05
2018-08-20T03:16:40.165Z,47.68
2018-08-20T03:17:39.812Z,47.49
2018-08-20T03:18:39.723Z,47.10
2018-08-20T03:19:39.619Z,45.00
2018-08-20T03:20:39.527Z,43.73
2018-08-20T03:21:39.425Z,44.03
2018-08-20T03:22:39.336Z,43.84
2018-08-20T03:23:39.242Z,42.69
2018-08-20T03:24:39.139Z,41.90
2018-08-20T03:25:39.049Z,40.17
2018-08-20T03:26:38.950Z,38.93
2018-08-20T03:27:38.855Z,38.26
2018-08-20T03:28:38.752Z,36.15
2018-08-20T03:29:38.661Z,37.30
2018-08-20T03:30:38.561Z,34.52
2018-08-20T03:31:38.461Z,31.54
2018-08-20T03:32:38.365Z,33.17
2018-08-20T03:33:38.274Z,33.84
2018-08-20T03:34:38.182Z,31.45
2018-08-20T03:35:38.090Z,32.98
2018-08-20T03:36:37.991Z,31.53
2018-08-20T03:37:37.885Z,32.89
2018-08-20T03:38:37.792Z,31.24
2018-08-20T03:39:37.690Z,30.20
2018-08-20T03:40:37.600Z,27.31
2018-08-20T03:41:37.796Z,29.71
2018-08-20T03:42:37.407Z,27.22
2018-08-20T03:43:37.301Z,27.31
2018-08-20T03:44:37.211Z,27.31
2018-08-20T03:45:37.108Z,24.24
2018-08-20T03:46:37.016Z,26.74
2018-08-20T03:47:36.914Z,24.15
2018-08-20T03:48:36.823Z,25.30
2018-08-20T03:49:36.726Z,25.30
2018-08-20T03:50:36.629Z,25.01
2018-08-20T03:51:36.539Z,24.24
2018-08-20T03:52:36.437Z,25.01
2018-08-20T03:53:36.343Z,25.40
2018-08-20T03:54:36.241Z,26.45
2018-08-20T03:55:36.150Z,26.74
2018-08-20T03:56:36.060Z,27.03
2018-08-20T03:57:35.955Z,26.45
2018-08-20T03:58:35.851Z,24.34
2018-08-20T03:59:35.762Z,25.31
2018-08-20T04:00:35.658Z,25.51
2018-08-20T04:01:35.567Z,24.05
2018-08-20T04:02:35.463Z,23.67
2018-08-20T04:03:35.373Z,24.15
2018-08-20T04:04:35.275Z,25.59
2018-08-20T04:05:35.178Z,24.15
2018-08-20T04:06:35.075Z,25.59
2018-08-20T04:07:34.986Z,25.31
2018-08-20T04:08:34.882Z,26.26
2018-08-20T04:09:34.790Z,26.54
2018-08-20T04:10:34.688Z,26.64
2018-08-20T04:11:34.598Z,26.46
2018-08-20T04:12:34.494Z,26.27
2018-08-20T04:13:34.403Z,26.56
2018-08-20T04:14:34.311Z,26.27
2018-08-20T04:15:34.211Z,26.37
2018-08-20T04:16:34.118Z,26.65
2018-08-20T04:17:34.014Z,27.04
2018-08-20T04:18:33.924Z,29.05
2018-08-20T04:19:33.820Z,29.82
2018-08-20T04:20:33.730Z,31.26
2018-08-20T04:21:33.625Z,31.95
2018-08-20T04:22:33.536Z,32.03
2018-08-20T04:23:33.434Z,31.75
2018-08-20T04:24:33.340Z,32.52
2018-08-20T04:25:33.236Z,33.00
2018-08-20T04:26:33.151Z,35.88
2018-08-20T04:27:33.044Z,37.82
2018-08-20T04:28:32.952Z,39.73
2018-08-20T04:29:32.849Z,41.66
2018-08-20T04:30:32.812Z,42.43
2018-08-20T04:31:32.667Z,44.73
2018-08-20T04:32:32.564Z,45.32
2018-08-20T04:33:32.474Z,47.25
2018-08-20T04:34:32.370Z,47.63
2018-08-20T04:35:32.279Z,48.11
2018-08-20T04:36:32.221Z,50.34
2018-08-20T04:37:32.086Z,52.17
2018-08-20T04:38:31.983Z,53.70
2018-08-20T04:39:31.891Z,55.56
2018-08-20T04:40:31.801Z,57.58
2018-08-20T04:41:31.697Z,57.20
2018-08-20T04:42:31.605Z,57.97
2018-08-20T04:43:31.503Z,59.69
2018-08-20T04:44:31.413Z,62.71
2018-08-20T04:45:31.323Z,61.46
2018-08-20T04:46:31.217Z,62.41
2018-08-20T04:47:31.127Z,63.48
2018-08-20T04:48:31.025Z,64.47
2018-08-20T04:49:30.932Z,65.05
2018-08-20T04:50:31.008Z,66.10
2018-08-20T04:51:30.872Z,67.74
2018-08-20T04:52:30.648Z,67.87
2018-08-20T04:53:30.557Z,69.51
2018-08-20T04:54:30.455Z,71.62
2018-08-20T04:55:30.362Z,72.78
2018-08-20T04:56:30.274Z,74.16
2018-08-20T04:57:30.170Z,74.45
2018-08-20T04:58:30.078Z,76.03
2018-08-20T04:59:29.988Z,76.13
2018-08-20T05:00:29.884Z,76.90
2018-08-20T05:01:30.043Z,78.25
2018-08-20T05:02:29.703Z,78.86
2018-08-20T05:03:29.611Z,78.58
2018-08-20T05:04:29.508Z,79.25
2018-08-20T05:05:29.418Z,79.64
2018-08-20T05:06:29.339Z,79.83
2018-08-20T05:07:29.224Z,79.74
2018-08-20T05:08:29.133Z,80.26
2018-08-20T05:09:29.041Z,80.16
2018-08-20T05:10:28.952Z,80.60
2018-08-20T05:11:28.848Z,80.74
2018-08-20T05:12:28.757Z,80.83
2018-08-20T05:13:28.666Z,80.45
2018-08-20T05:14:28.576Z,80.93
2018-08-20T05:15:28.475Z,81.84
2018-08-20T05:16:28.382Z,82.13
2018-08-20T05:17:28.289Z,82.61
2018-08-20T05:18:28.200Z,83.00
2018-08-20T05:19:28.097Z,82.90
2018-08-20T05:20:28.005Z,83.14
2018-08-20T05:21:28.167Z,83.81
2018-08-20T05:22:27.824Z,84.20
2018-08-20T05:23:27.722Z,84.72
2018-08-20T05:24:27.641Z,84.63
2018-08-20T05:25:27.538Z,84.82
2018-08-20T05:26:27.449Z,84.91
2018-08-20T05:27:27.357Z,84.63
2018-08-20T05:28:27.254Z,85.59
2018-08-20T05:29:27.187Z,85.73
2018-08-20T05:30:27.071Z,85.44
2018-08-20T05:31:26.982Z,84.72
2018-08-20T05:32:26.892Z,85.15
2018-08-20T05:33:26.800Z,85.25
2018-08-20T05:34:26.698Z,85.48
2018-08-20T05:35:26.605Z,84.52
2018-08-20T05:36:26.516Z,84.32
2018-08-20T05:37:26.424Z,84.71
2018-08-20T05:38:26.333Z,84.90
2018-08-20T05:39:26.242Z,84.08
2018-08-20T05:40:26.152Z,84.17
2018-08-20T05:41:26.049Z,84.13
2018-08-20T05:42:25.957Z,84.61
2018-08-20T05:43:25.868Z,84.71
2018-08-20T05:44:25.775Z,84.71
2018-08-20T05:45:25.685Z,84.22
2018-08-20T05:46:25.599Z,84.75
2018-08-20T05:47:25.504Z,82.86
2018-08-20T05:48:25.412Z,82.18
2018-08-20T05:49:25.323Z,82.57
2018-08-20T05:50:25.223Z,81.95
2018-08-20T05:51:25.128Z,82.95
2018-08-20T05:52:25.054Z,82.04
2018-08-20T05:53:24.946Z,82.81
2018-08-20T05:54:24.856Z,83.83
2018-08-20T05:55:24.764Z,81.15
2018-08-20T05:56:24.676Z,80.77
2018-08-20T05:57:24.585Z,80.13
2018-08-20T05:58:24.492Z,80.19
2018-08-20T05:59:24.406Z,78.97
2018-08-20T06:00:24.311Z,79.45
2018-08-20T06:01:24.219Z,79.20
2018-08-20T06:02:24.130Z,78.13
2018-08-20T06:03:24.040Z,78.71
2018-08-20T06:04:23.937Z,78.48
2018-08-20T06:05:23.844Z,77.75
2018-08-20T06:06:23.765Z,77.94
2018-08-20T06:07:23.663Z,79.10
2018-08-20T06:08:23.577Z,77.45
2018-08-20T06:09:23.480Z,75.84
2018-08-20T06:10:23.389Z,76.68
2018-08-20T06:11:23.301Z,77.65
2018-08-20T06:12:23.208Z,76.23
2018-08-20T06:13:23.118Z,77.55
2018-08-20T06:14:23.026Z,78.13
2018-08-20T06:15:23.043Z,78.77
2018-08-20T06:16:22.845Z,79.35
2018-08-20T06:17:22.754Z,79.74
2018-08-20T06:18:22.664Z,79.50
2018-08-20T06:19:22.574Z,80.42
2018-08-20T06:20:22.482Z,78.27
2018-08-20T06:21:22.392Z,77.11
2018-08-20T06:22:22.301Z,75.45
2018-08-20T06:23:22.224Z,75.20
2018-08-20T06:24:22.120Z,73.52
2018-08-20T06:25:22.029Z,75.74
2018-08-20T06:26:21.939Z,74.62
2018-08-20T06:27:21.859Z,74.87
2018-08-20T06:28:21.769Z,76.39
2018-08-20T06:29:21.679Z,77.75
2018-08-20T06:30:21.590Z,76.39
2018-08-20T06:31:21.495Z,75.36
2018-08-20T06:32:21.405Z,75.74
2018-08-20T06:33:21.314Z,75.71
2018-08-20T06:34:21.224Z,75.61
2018-08-20T06:35:21.132Z,74.74
2018-08-20T06:36:21.042Z,75.77
2018-08-20T06:37:20.953Z,77.67
2018-08-20T06:38:20.861Z,78.92
2018-08-20T06:39:20.778Z,79.12
2018-08-20T06:40:20.679Z,79.02
2018-08-20T06:41:20.837Z,78.92
2018-08-20T06:42:20.498Z,77.70
2018-08-20T06:43:20.406Z,75.90
2018-08-20T06:44:20.316Z,76.70
2018-08-20T06:45:20.238Z,77.37
2018-08-20T06:46:20.135Z,77.51
2018-08-20T06:47:20.045Z,77.51
2018-08-20T06:48:19.966Z,77.51
2018-08-20T06:49:19.875Z,78.25
2018-08-20T06:50:19.788Z,77.70
2018-08-20T06:51:19.693Z,78.48
2018-08-20T06:52:19.604Z,77.75
2018-08-20T06:53:19.511Z,76.48
2018-08-20T06:54:19.420Z,76.25
2018-08-20T06:55:19.332Z,77.96
2018-08-20T06:56:19.237Z,77.70
2018-08-20T06:57:19.148Z,76.58
2018-08-20T06:58:19.071Z,75.65
2018-08-20T06:59:18.966Z,74.49
2018-08-20T07:00:18.879Z,72.23
2018-08-20T07:01:18.785Z,69.09
2018-08-20T07:02:18.693Z,69.06
2018-08-20T07:03:18.603Z,70.00
2018-08-20T07:04:18.511Z,71.32
2018-08-20T07:05:18.427Z,72.55
2018-08-20T07:06:18.349Z,74.49
2018-08-20T07:07:18.265Z,75.42
2018-08-20T07:08:18.162Z,75.36
2018-08-20T07:09:18.070Z,75.65
2018-08-20T07:10:17.981Z,76.48
2018-08-20T07:11:17.888Z,77.55
2018-08-20T07:12:17.799Z,78.77
2018-08-20T07:13:17.707Z,79.90
2018-08-20T07:14:17.617Z,80.73
2018-08-20T07:15:17.524Z,82.33
2018-08-20T07:16:17.435Z,82.72
2018-08-20T07:17:17.346Z,83.40
2018-08-20T07:18:17.264Z,83.45
2018-08-20T07:19:17.175Z,84.13
2018-08-20T07:20:17.083Z,84.42
2018-08-20T07:21:16.994Z,84.46
2018-08-20T07:22:16.901Z,84.17
2018-08-20T07:23:16.815Z,84.46
2018-08-20T07:24:16.720Z,84.27
2018-08-20T07:25:16.634Z,84.32
2018-08-20T07:26:16.543Z,84.22
2018-08-20T07:27:16.449Z,84.08
2018-08-20T07:28:16.357Z,84.46
2018-08-20T07:29:16.267Z,84.27
2018-08-20T07:30:16.175Z,84.46
2018-08-20T07:31:16.084Z,83.78
2018-08-20T07:32:15.993Z,83.49
2018-08-20T07:33:15.903Z,84.17
2018-08-20T07:34:15.811Z,84.31
2018-08-20T07:35:15.722Z,83.25
2018-08-20T07:36:15.631Z,83.34
2018-08-20T07:37:15.545Z,83.58
2018-08-20T07:38:15.462Z,83.05
2018-08-20T07:39:15.360Z,83.00
2018-08-20T07:40:15.266Z,82.90
2018-08-20T07:41:15.178Z,82.90
2018-08-20T07:42:15.133Z,83.28
2018-08-20T07:43:14.996Z,82.60
2018-08-20T07:44:14.903Z,82.80
2018-08-20T07:45:14.813Z,82.51
2018-08-20T07:46:14.721Z,82.22
2018-08-20T07:47:14.640Z,82.80
2018-08-20T07:48:14.540Z,82.80
2018-08-20T07:49:14.449Z,82.22
2018-08-20T07:50:14.359Z,82.32
2018-08-20T07:51:14.268Z,83.00
2018-08-20T07:52:14.177Z,82.60
2018-08-20T07:53:14.087Z,83.34
2018-08-20T07:54:13.996Z,83.25
2018-08-20T07:55:13.906Z,83.49
2018-08-20T07:56:13.814Z,84.21
2018-08-20T07:57:13.724Z,84.11
2018-08-20T07:58:13.632Z,84.31
2018-08-20T07:59:13.542Z,84.55
2018-08-20T08:00:13.453Z,84.06
2018-08-20T08:01:13.362Z,83.86
2018-08-20T08:02:13.272Z,83.48
2018-08-20T08:03:13.180Z,82.70
2018-08-20T08:04:13.090Z,83.38
2018-08-20T08:05:12.998Z,83.86
2018-08-20T08:06:12.912Z,83.58
2018-08-20T08:07:12.816Z,83.48
2018-08-20T08:08:12.726Z,83.48
2018-08-20T08:09:12.635Z,83.48
2018-08-20T08:10:12.547Z,83.38
2018-08-20T08:11:12.454Z,83.67
2018-08-20T08:12:12.362Z,83.77
2018-08-20T08:13:12.272Z,83.28
2018-08-20T08:14:12.226Z,83.28
2018-08-20T08:15:12.090Z,83.96
2018-08-20T08:16:12.001Z,84.31
2018-08-20T08:17:11.908Z,84.21
2018-08-20T08:18:11.830Z,83.92
2018-08-20T08:19:11.727Z,84.31
2018-08-20T08:20:11.636Z,84.11
2018-08-20T08:21:11.545Z,84.11
2018-08-20T08:22:11.455Z,84.31
2018-08-20T08:23:11.363Z,84.79
2018-08-20T08:24:11.260Z,84.36
2018-08-20T08:25:11.170Z,84.94
2018-08-20T08:26:11.078Z,85.04
2018-08-20T08:27:10.988Z,84.75
2018-08-20T08:28:10.897Z,84.56
2018-08-20T08:29:10.805Z,84.27
2018-08-20T08:30:10.715Z,84.66
2018-08-20T08:31:10.624Z,85.04
2018-08-20T08:32:10.533Z,84.94
2018-08-20T08:33:10.443Z,84.84
2018-08-20T08:34:10.351Z,84.60
2018-08-20T08:35:10.259Z,84.89
2018-08-20T08:36:10.171Z,84.11
2018-08-20T08:37:10.081Z,84.60
2018-08-20T08:38:10.011Z,84.66
2018-08-20T08:39:09.899Z,84.84
2018-08-20T08:40:09.807Z,84.66
2018-08-20T08:41:09.716Z,84.46
2018-08-20T08:42:09.625Z,84.66
2018-08-20T08:43:09.535Z,84.94
2018-08-20T08:44:09.448Z,84.94
2018-08-20T08:45:09.353Z,84.46
2018-08-20T08:46:09.262Z,84.46
2018-08-20T08:47:09.170Z,84.94
2018-08-20T08:48:09.081Z,85.14
2018-08-20T08:49:08.988Z,84.89
2018-08-20T08:50:08.899Z,84.99
2018-08-20T08:51:08.820Z,84.79
2018-08-20T08:52:08.704Z,85.28
2018-08-20T08:53:08.614Z,84.89
2018-08-20T08:54:08.522Z,85.22
2018-08-20T08:55:08.433Z,84.83
2018-08-20T08:56:08.340Z,84.20
2018-08-20T08:57:08.250Z,84.25
2018-08-20T08:58:08.159Z,83.72
2018-08-20T08:59:08.068Z,83.91
2018-08-20T09:00:07.976Z,83.33
2018-08-20T09:01:07.887Z,83.77
2018-08-20T09:02:07.796Z,84.45
2018-08-20T09:03:07.706Z,84.25
2018-08-20T09:04:07.615Z,83.91
2018-08-20T09:05:07.524Z,83.91
2018-08-20T09:06:07.435Z,83.72
2018-08-20T09:07:07.342Z,83.52
2018-08-20T09:08:07.251Z,83.67
2018-08-20T09:09:07.161Z,84.00
2018-08-20T09:10:07.072Z,84.00
2018-08-20T09:11:06.980Z,83.56
2018-08-20T09:12:06.888Z,83.85
2018-08-20T09:13:06.800Z,82.34
2018-08-20T09:14:06.706Z,81.27
2018-08-20T09:15:06.616Z,81.80
2018-08-20T09:16:06.524Z,80.54
2018-08-20T09:17:06.437Z,80.34
2018-08-20T09:18:06.348Z,80.34
2018-08-20T09:19:06.253Z,80.44
2018-08-20T09:20:06.163Z,80.54
2018-08-20T09:21:06.072Z,80.77
2018-08-20T09:22:05.980Z,78.92
2018-08-20T09:23:05.889Z,79.32
2018-08-20T09:24:05.798Z,79.08
2018-08-20T09:25:05.709Z,79.76
2018-08-20T09:26:05.617Z,80.01
2018-08-20T09:27:05.526Z,80.50
2018-08-20T09:28:05.437Z,80.60
2018-08-20T09:29:05.345Z,80.60
2018-08-20T09:30:05.256Z,81.04
2018-08-20T09:31:05.175Z,81.18
2018-08-20T09:32:05.085Z,80.85
2018-08-20T09:33:04.997Z,81.23
2018-08-20T09:34:04.905Z,81.52
2018-08-20T09:35:04.812Z,81.04
2018-08-20T09:36:04.972Z,81.20
2018-08-20T09:37:04.630Z,81.43
2018-08-20T09:38:04.540Z,82.10
2018-08-20T09:39:04.448Z,81.13
2018-08-20T09:40:04.413Z,81.13
2018-08-20T09:41:04.269Z,81.39
2018-08-20T09:42:04.176Z,82.84
2018-08-20T09:43:04.085Z,82.84
2018-08-20T09:44:03.998Z,83.81
2018-08-20T09:45:03.905Z,83.48
2018-08-20T09:46:03.828Z,83.67
2018-08-20T09:47:03.735Z,84.35
2018-08-20T09:48:03.657Z,84.35
2018-08-20T09:49:03.554Z,83.81
2018-08-20T09:50:03.462Z,84.06
2018-08-20T09:51:03.372Z,83.86
2018-08-20T09:52:03.283Z,83.77
2018-08-20T09:53:03.190Z,83.96
2018-08-20T09:54:03.099Z,84.50
2018-08-20T09:55:03.009Z,84.31
2018-08-20T09:56:02.916Z,84.60
2018-08-20T09:57:02.827Z,84.79
2018-08-20T09:58:02.737Z,84.75
2018-08-20T09:59:02.699Z,85.28
2018-08-20T10:00:02.567Z,84.94
2018-08-20T10:01:02.498Z,85.14
2018-08-20T10:02:02.374Z,84.56
2018-08-20T10:03:02.282Z,85.14
2018-08-20T10:04:02.193Z,84.79
2018-08-20T10:05:02.100Z,85.18
2018-08-20T10:06:02.010Z,84.79
2018-08-20T10:07:01.918Z,85.13
2018-08-20T10:08:01.828Z,85.03
2018-08-20T10:09:01.741Z,85.03
2018-08-20T10:10:01.646Z,85.03
2018-08-20T10:11:01.556Z,84.78
2018-08-20T10:12:01.465Z,84.30
2018-08-20T10:13:01.374Z,84.30
2018-08-20T10:14:01.284Z,83.77
2018-08-20T10:15:01.193Z,84.35
2018-08-20T10:16:01.102Z,84.45
2018-08-20T10:17:01.011Z,83.81
2018-08-20T10:18:00.920Z,84.30
2018-08-20T10:19:00.832Z,84.20
2018-08-20T10:20:00.739Z,83.81
2018-08-20T10:21:00.648Z,84.00
2018-08-20T10:22:00.556Z,83.27
2018-08-20T10:23:00.466Z,83.52
2018-08-20T10:24:00.376Z,83.03
2018-08-20T10:25:00.286Z,83.13
2018-08-20T10:26:00.193Z,83.52
2018-08-20T10:27:00.104Z,83.77
2018-08-20T10:28:00.013Z,83.67
2018-08-20T10:28:59.922Z,83.77
2018-08-20T10:29:59.830Z,83.72
2018-08-20T10:30:59.740Z,83.52
2018-08-20T10:31:59.689Z,82.26
2018-08-20T10:32:59.546Z,82.59
2018-08-20T10:33:59.456Z,82.20
2018-08-20T10:34:59.364Z,82.20
2018-08-20T10:35:59.277Z,81.00
2018-08-20T10:36:59.182Z,81.23
2018-08-20T10:37:59.193Z,81.43
2018-08-20T10:38:59.001Z,80.88
2018-08-20T10:39:58.910Z,80.79
2018-08-20T10:40:58.819Z,79.66
2018-08-20T10:41:58.728Z,79.47
2018-08-20T10:42:58.637Z,79.28
2018-08-20T10:43:58.548Z,79.76
2018-08-20T10:44:58.455Z,78.64
2018-08-20T10:45:58.365Z,77.51
2018-08-20T10:46:58.274Z,74.02
2018-08-20T10:47:58.184Z,70.17
2018-08-20T10:48:58.095Z,67.73
2018-08-20T10:49:58.030Z,66.66
2018-08-20T10:50:57.912Z,66.47
2018-08-20T10:51:57.832Z,67.83
2018-08-20T10:52:57.742Z,67.80
2018-08-20T10:53:57.650Z,67.21
2018-08-20T10:54:57.565Z,67.54
2018-08-20T10:55:57.469Z,66.76
2018-08-20T10:56:57.379Z,66.17
2018-08-20T10:57:57.287Z,65.98
2018-08-20T10:58:57.197Z,66.08
2018-08-20T10:59:57.106Z,65.01
2018-08-20T11:00:57.027Z,66.11
2018-08-20T11:01:56.970Z,66.40
2018-08-20T11:02:56.846Z,66.79
2018-08-20T11:03:56.759Z,65.92
2018-08-20T11:04:56.664Z,65.92
2018-08-20T11:05:56.575Z,67.34
2018-08-20T11:06:56.482Z,69.60
2018-08-20T11:07:56.393Z,71.36
2018-08-20T11:08:56.314Z,73.74
2018-08-20T11:09:56.248Z,74.58
2018-08-20T11:10:56.193Z,76.04
2018-08-20T11:11:56.041Z,76.42
2018-08-20T11:12:55.952Z,77.11
2018-08-20T11:13:55.859Z,76.97
2018-08-20T11:14:55.769Z,77.26
2018-08-20T11:15:55.678Z,78.03
2018-08-20T11:16:55.588Z,78.03
2018-08-20T11:17:55.515Z,77.94
2018-08-20T11:18:55.418Z,78.61
2018-08-20T11:19:55.327Z,78.81
2018-08-20T11:20:55.237Z,78.33
2018-08-20T11:21:55.148Z,78.52
2018-08-20T11:22:55.055Z,78.23
2018-08-20T11:23:54.966Z,77.69
2018-08-20T11:24:54.877Z,77.78
2018-08-20T11:25:54.783Z,77.88
2018-08-20T11:26:54.715Z,78.03
2018-08-20T11:27:54.601Z,78.33
2018-08-20T11:28:54.514Z,79.10
2018-08-20T11:29:54.420Z,79.88
2018-08-20T11:30:54.329Z,80.07
2018-08-20T11:31:54.239Z,80.62
2018-08-20T11:32:54.149Z,80.52
2018-08-20T11:33:54.062Z,81.00
2018-08-20T11:34:53.965Z,80.52
2018-08-20T11:35:53.900Z,81.35
2018-08-20T11:36:53.789Z,81.87
2018-08-20T11:37:53.693Z,81.00
2018-08-20T11:38:53.604Z,80.80
2018-08-20T11:39:53.512Z,81.00
2018-08-20T11:40:53.421Z,80.71
2018-08-20T11:41:53.334Z,80.46
2018-08-20T11:42:53.240Z,80.46
2018-08-20T11:43:53.148Z,78.85
2018-08-20T11:44:53.060Z,78.85
2018-08-20T11:45:52.979Z,77.43
2018-08-20T11:46:52.889Z,77.43
2018-08-20T11:47:52.800Z,77.69
2018-08-20T11:48:52.708Z,77.59
2018-08-20T11:49:52.616Z,77.59
2018-08-20T11:50:52.525Z,77.78
2018-08-20T11:51:52.436Z,79.53
2018-08-20T11:52:52.345Z,79.30
2018-08-20T11:53:52.252Z,79.39
2018-08-20T11:54:52.162Z,80.26
2018-08-20T11:55:52.070Z,80.62
2018-08-20T11:56:51.980Z,82.12
2018-08-20T11:57:51.889Z,82.70
2018-08-20T11:58:51.800Z,82.55
2018-08-20T11:59:51.720Z,83.13
2018-08-20T12:00:51.616Z,82.65
2018-08-20T12:01:51.548Z,82.26
2018-08-20T12:02:51.438Z,82.51
2018-08-20T12:03:51.348Z,83.58
2018-08-20T12:04:51.254Z,83.18
2018-08-20T12:05:51.163Z,83.96
2018-08-20T12:06:51.102Z,83.77
2018-08-20T12:07:51.086Z,83.58
2018-08-20T12:08:50.890Z,83.96
2018-08-20T12:09:50.799Z,83.67
2018-08-20T12:10:50.709Z,83.38
2018-08-20T12:11:50.621Z,83.33
2018-08-20T12:12:50.518Z,82.94
2018-08-20T12:13:50.437Z,82.69
2018-08-20T12:14:50.334Z,82.10
2018-08-20T12:15:50.246Z,82.01
2018-08-20T12:16:50.152Z,81.52
2018-08-20T12:17:50.061Z,81.33
2018-08-20T12:18:49.969Z,81.43
2018-08-20T12:19:49.883Z,81.27
2018-08-20T12:20:49.787Z,80.98
2018-08-20T12:21:49.697Z,80.85
2018-08-20T12:22:49.607Z,80.85
2018-08-20T12:23:49.516Z,81.52
2018-08-20T12:24:49.424Z,81.52
2018-08-20T12:25:49.348Z,82.01
2018-08-20T12:26:49.243Z,82.55
2018-08-20T12:27:49.157Z,83.33
2018-08-20T12:28:49.063Z,83.52
2018-08-20T12:29:48.970Z,83.52
2018-08-20T12:30:48.919Z,83.72
2018-08-20T12:31:48.791Z,83.81
2018-08-20T12:32:48.697Z,84.30
2018-08-20T12:33:48.608Z,84.49
2018-08-20T12:34:48.516Z,83.52
2018-08-20T12:35:48.427Z,83.81
2018-08-20T12:36:48.334Z,83.47
2018-08-20T12:37:48.244Z,83.07
2018-08-20T12:38:48.152Z,83.62
2018-08-20T12:39:48.073Z,84.00
2018-08-20T12:40:47.971Z,83.67
2018-08-20T12:41:47.881Z,84.16
2018-08-20T12:42:47.789Z,84.74
2018-08-20T12:43:47.688Z,84.74
2018-08-20T12:44:47.610Z,85.13
2018-08-20T12:45:47.518Z,84.83
2018-08-20T12:46:47.415Z,84.74
2018-08-20T12:47:47.324Z,85.03
2018-08-20T12:48:47.233Z,84.55
2018-08-20T12:49:47.154Z,84.83
2018-08-20T12:50:47.052Z,84.64
2018-08-20T12:51:46.960Z,85.03